Portada
METAR-TAF:

METAR-TAF

Aeroports :

Båtsfjord, Noruega

latitud: 70-38N, longitud: 029-44E, altitud: 10 m

Observació

L'informe es va fer fa 27 minuts, a les 15:50 UTC
Vent 32 kt del Oest/Nord-Oest
Temperatura -6°C
Humitat 73%
Pressió 995 hPa
Visibilitat 10 km o més
Escasses núvols a una alçada de 1700 ft
torb baixa de neu

METAR: ENBS 101550Z 30032KT 9999 DRSN FEW017 SCT0030 M06/M10 Q0995

Hora: 17:17 (16:17 UTC)


TAF: manca

Observacions i pronòstics meteorològics de més de 4000 aeroports (METAR i TAF).

Les estacions disponibles són els punts grocs i vermells al mapa.

Posi el ratolí al punt desitjat per veure el nom de l'estació.

Feu clic per veure les observacions i els pronòstics meteorològics.

Per canviar el mapa: feu clic els botons verds amb una creu de color negre per apropar; al botó verd amb un guió per allunyar la imatge; o en les fletxes verdes per a mapes adjacents.


METAR-TAF: